sensor_id;sensor_type;location;lat;lon;timestamp;temperature;humidity
4487;DHT22;2256;48.740;9.106;2023-06-26T00:01:18;20.80;86.90
4487;DHT22;2256;48.740;9.106;2023-06-26T00:03:58;20.80;86.80
4487;DHT22;2256;48.740;9.106;2023-06-26T00:06:29;20.70;87.10
4487;DHT22;2256;48.740;9.106;2023-06-26T00:09:01;20.70;87.00
4487;DHT22;2256;48.740;9.106;2023-06-26T00:11:30;20.70;87.20
4487;DHT22;2256;48.740;9.106;2023-06-26T00:13:58;20.60;87.30
4487;DHT22;2256;48.740;9.106;2023-06-26T00:16:26;20.70;87.40
4487;DHT22;2256;48.740;9.106;2023-06-26T00:18:53;20.70;87.50
4487;DHT22;2256;48.740;9.106;2023-06-26T00:21:21;20.70;87.60
4487;DHT22;2256;48.740;9.106;2023-06-26T00:23:47;20.70;87.70
4487;DHT22;2256;48.740;9.106;2023-06-26T00:26:14;20.60;87.90
4487;DHT22;2256;48.740;9.106;2023-06-26T00:28:43;20.60;87.70
4487;DHT22;2256;48.740;9.106;2023-06-26T00:31:10;20.60;88.20
4487;DHT22;2256;48.740;9.106;2023-06-26T00:33:43;20.60;88.20
4487;DHT22;2256;48.740;9.106;2023-06-26T00:36:10;20.50;88.00
4487;DHT22;2256;48.740;9.106;2023-06-26T00:38:38;20.50;88.20
4487;DHT22;2256;48.740;9.106;2023-06-26T00:41:05;20.40;88.80
4487;DHT22;2256;48.740;9.106;2023-06-26T00:43:38;20.30;89.10
4487;DHT22;2256;48.740;9.106;2023-06-26T00:46:10;20.20;89.20
4487;DHT22;2256;48.740;9.106;2023-06-26T00:48:39;20.20;89.40
4487;DHT22;2256;48.740;9.106;2023-06-26T00:51:09;20.20;89.60
4487;DHT22;2256;48.740;9.106;2023-06-26T00:53:36;20.10;89.60
4487;DHT22;2256;48.740;9.106;2023-06-26T00:56:05;20.20;89.90
4487;DHT22;2256;48.740;9.106;2023-06-26T00:58:33;20.20;89.70
4487;DHT22;2256;48.740;9.106;2023-06-26T01:01:00;20.20;89.70
4487;DHT22;2256;48.740;9.106;2023-06-26T01:03:29;20.10;89.90
4487;DHT22;2256;48.740;9.106;2023-06-26T01:05:58;20.10;89.80
4487;DHT22;2256;48.740;9.106;2023-06-26T01:08:26;20.10;90.00
4487;DHT22;2256;48.740;9.106;2023-06-26T01:10:54;20.10;90.00
4487;DHT22;2256;48.740;9.106;2023-06-26T01:13:21;20.10;90.00
4487;DHT22;2256;48.740;9.106;2023-06-26T01:15:49;20.00;90.20
4487;DHT22;2256;48.740;9.106;2023-06-26T01:18:18;20.10;90.40
4487;DHT22;2256;48.740;9.106;2023-06-26T01:20:46;19.90;90.60
4487;DHT22;2256;48.740;9.106;2023-06-26T01:23:17;19.80;90.80
4487;DHT22;2256;48.740;9.106;2023-06-26T01:25:57;19.80;90.60
4487;DHT22;2256;48.740;9.106;2023-06-26T01:28:30;19.80;90.70
4487;DHT22;2256;48.740;9.106;2023-06-26T01:31:00;19.70;90.70
4487;DHT22;2256;48.740;9.106;2023-06-26T01:33:47;19.60;91.00
4487;DHT22;2256;48.740;9.106;2023-06-26T01:36:34;19.50;91.10
4487;DHT22;2256;48.740;9.106;2023-06-26T01:39:19;19.50;91.00
4487;DHT22;2256;48.740;9.106;2023-06-26T01:42:13;19.40;91.20
4487;DHT22;2256;48.740;9.106;2023-06-26T01:45:24;19.50;91.20
4487;DHT22;2256;48.740;9.106;2023-06-26T01:48:10;19.40;91.10
4487;DHT22;2256;48.740;9.106;2023-06-26T01:50:41;19.50;91.20
4487;DHT22;2256;48.740;9.106;2023-06-26T01:53:12;19.40;91.20
4487;DHT22;2256;48.740;9.106;2023-06-26T01:55:46;19.50;91.20
4487;DHT22;2256;48.740;9.106;2023-06-26T01:58:25;19.50;91.20
4487;DHT22;2256;48.740;9.106;2023-06-26T02:00:54;19.50;91.10
4487;DHT22;2256;48.740;9.106;2023-06-26T02:03:21;19.60;91.30
4487;DHT22;2256;48.740;9.106;2023-06-26T02:05:49;19.40;91.30
4487;DHT22;2256;48.740;9.106;2023-06-26T02:08:17;19.40;91.30
4487;DHT22;2256;48.740;9.106;2023-06-26T02:10:44;19.40;91.30
4487;DHT22;2256;48.740;9.106;2023-06-26T02:13:11;19.40;91.40
4487;DHT22;2256;48.740;9.106;2023-06-26T02:15:39;19.50;91.40
4487;DHT22;2256;48.740;9.106;2023-06-26T02:18:07;19.50;91.50
4487;DHT22;2256;48.740;9.106;2023-06-26T02:20:35;19.40;91.50
4487;DHT22;2256;48.740;9.106;2023-06-26T02:23:08;19.50;91.50
4487;DHT22;2256;48.740;9.106;2023-06-26T02:25:43;19.40;91.70
4487;DHT22;2256;48.740;9.106;2023-06-26T02:40:42;19.10;92.10
4487;DHT22;2256;48.740;9.106;2023-06-26T02:43:27;19.10;92.50
4487;DHT22;2256;48.740;9.106;2023-06-26T02:46:09;19.10;92.60
4487;DHT22;2256;48.740;9.106;2023-06-26T02:49:00;19.00;92.70
4487;DHT22;2256;48.740;9.106;2023-06-26T02:51:28;18.80;92.80
4487;DHT22;2256;48.740;9.106;2023-06-26T02:54:04;18.90;92.90
4487;DHT22;2256;48.740;9.106;2023-06-26T02:56:34;18.80;92.90
4487;DHT22;2256;48.740;9.106;2023-06-26T02:59:06;18.80;93.00
4487;DHT22;2256;48.740;9.106;2023-06-26T03:01:33;18.80;92.90
4487;DHT22;2256;48.740;9.106;2023-06-26T03:04:01;18.70;93.00
4487;DHT22;2256;48.740;9.106;2023-06-26T03:06:28;18.70;93.10
4487;DHT22;2256;48.740;9.106;2023-06-26T03:08:55;18.80;93.10
4487;DHT22;2256;48.740;9.106;2023-06-26T03:11:23;18.80;93.00
4487;DHT22;2256;48.740;9.106;2023-06-26T03:13:51;18.90;93.00
4487;DHT22;2256;48.740;9.106;2023-06-26T03:16:18;19.00;93.00
4487;DHT22;2256;48.740;9.106;2023-06-26T03:18:45;19.00;92.80
4487;DHT22;2256;48.740;9.106;2023-06-26T03:21:12;19.30;92.70
4487;DHT22;2256;48.740;9.106;2023-06-26T03:23:39;19.30;92.50
4487;DHT22;2256;48.740;9.106;2023-06-26T03:26:05;19.20;92.80
4487;DHT22;2256;48.740;9.106;2023-06-26T03:28:34;19.30;92.50
4487;DHT22;2256;48.740;9.106;2023-06-26T03:31:01;19.40;92.40
4487;DHT22;2256;48.740;9.106;2023-06-26T03:33:28;19.50;92.40
4487;DHT22;2256;48.740;9.106;2023-06-26T03:35:55;19.50;92.20
4487;DHT22;2256;48.740;9.106;2023-06-26T03:38:22;19.50;92.30
4487;DHT22;2256;48.740;9.106;2023-06-26T03:40:49;19.60;92.20
4487;DHT22;2256;48.740;9.106;2023-06-26T03:43:16;19.60;92.10
4487;DHT22;2256;48.740;9.106;2023-06-26T03:45:46;19.70;92.10
4487;DHT22;2256;48.740;9.106;2023-06-26T03:48:13;19.70;92.20
4487;DHT22;2256;48.740;9.106;2023-06-26T03:50:40;19.80;92.00
4487;DHT22;2256;48.740;9.106;2023-06-26T03:53:07;19.80;92.00
4487;DHT22;2256;48.740;9.106;2023-06-26T03:55:34;19.80;92.00
4487;DHT22;2256;48.740;9.106;2023-06-26T03:58:01;19.80;91.90
4487;DHT22;2256;48.740;9.106;2023-06-26T04:00:27;19.90;91.80
4487;DHT22;2256;48.740;9.106;2023-06-26T04:02:56;19.80;91.60
4487;DHT22;2256;48.740;9.106;2023-06-26T04:05:23;19.90;91.40
4487;DHT22;2256;48.740;9.106;2023-06-26T04:07:51;20.00;91.40
4487;DHT22;2256;48.740;9.106;2023-06-26T04:10:19;20.00;91.30
4487;DHT22;2256;48.740;9.106;2023-06-26T04:12:46;20.10;91.40
4487;DHT22;2256;48.740;9.106;2023-06-26T04:15:13;20.10;91.20
4487;DHT22;2256;48.740;9.106;2023-06-26T04:17:40;20.20;91.00
4487;DHT22;2256;48.740;9.106;2023-06-26T04:20:09;20.30;90.70
4487;DHT22;2256;48.740;9.106;2023-06-26T04:22:37;20.50;90.60
4487;DHT22;2256;48.740;9.106;2023-06-26T04:25:05;20.50;90.40
4487;DHT22;2256;48.740;9.106;2023-06-26T04:27:32;20.60;90.20
4487;DHT22;2256;48.740;9.106;2023-06-26T04:30:00;20.70;90.30
4487;DHT22;2256;48.740;9.106;2023-06-26T04:32:26;20.80;90.30
4487;DHT22;2256;48.740;9.106;2023-06-26T04:34:53;20.70;90.30
4487;DHT22;2256;48.740;9.106;2023-06-26T04:37:22;20.80;90.30
4487;DHT22;2256;48.740;9.106;2023-06-26T04:39:50;20.90;91.80
4487;DHT22;2256;48.740;9.106;2023-06-26T04:42:19;21.00;92.10
4487;DHT22;2256;48.740;9.106;2023-06-26T04:44:47;21.10;91.40
4487;DHT22;2256;48.740;9.106;2023-06-26T04:47:14;21.20;90.40
4487;DHT22;2256;48.740;9.106;2023-06-26T04:49:41;21.30;90.10
4487;DHT22;2256;48.740;9.106;2023-06-26T04:52:11;21.40;90.20
4487;DHT22;2256;48.740;9.106;2023-06-26T04:54:40;21.50;90.20
4487;DHT22;2256;48.740;9.106;2023-06-26T04:57:07;21.60;89.30
4487;DHT22;2256;48.740;9.106;2023-06-26T04:59:35;21.60;90.00
4487;DHT22;2256;48.740;9.106;2023-06-26T05:02:02;21.70;89.80
4487;DHT22;2256;48.740;9.106;2023-06-26T05:04:30;21.70;89.50
4487;DHT22;2256;48.740;9.106;2023-06-26T05:06:57;21.80;90.00
4487;DHT22;2256;48.740;9.106;2023-06-26T05:09:25;21.80;90.00
4487;DHT22;2256;48.740;9.106;2023-06-26T05:11:53;21.90;89.10
4487;DHT22;2256;48.740;9.106;2023-06-26T05:14:19;21.90;89.00
4487;DHT22;2256;48.740;9.106;2023-06-26T05:16:46;22.00;89.30
4487;DHT22;2256;48.740;9.106;2023-06-26T05:19:13;22.10;89.00
4487;DHT22;2256;48.740;9.106;2023-06-26T05:21:40;22.10;89.50
4487;DHT22;2256;48.740;9.106;2023-06-26T05:24:08;22.20;89.30
4487;DHT22;2256;48.740;9.106;2023-06-26T05:26:36;22.20;88.90
4487;DHT22;2256;48.740;9.106;2023-06-26T05:29:04;22.30;88.90
4487;DHT22;2256;48.740;9.106;2023-06-26T05:31:33;22.40;89.30
4487;DHT22;2256;48.740;9.106;2023-06-26T05:34:02;22.30;88.80
4487;DHT22;2256;48.740;9.106;2023-06-26T05:36:31;22.40;89.50
4487;DHT22;2256;48.740;9.106;2023-06-26T05:39:00;22.60;88.60
4487;DHT22;2256;48.740;9.106;2023-06-26T05:41:28;22.60;88.50
4487;DHT22;2256;48.740;9.106;2023-06-26T05:43:55;22.70;88.40
4487;DHT22;2256;48.740;9.106;2023-06-26T05:46:23;22.80;88.20
4487;DHT22;2256;48.740;9.106;2023-06-26T05:48:50;22.80;88.20
4487;DHT22;2256;48.740;9.106;2023-06-26T05:51:17;22.90;88.40
4487;DHT22;2256;48.740;9.106;2023-06-26T05:53:44;22.90;88.30
4487;DHT22;2256;48.740;9.106;2023-06-26T05:56:12;22.90;88.50
4487;DHT22;2256;48.740;9.106;2023-06-26T05:58:39;23.00;89.20
4487;DHT22;2256;48.740;9.106;2023-06-26T06:01:06;23.10;88.80
4487;DHT22;2256;48.740;9.106;2023-06-26T06:03:34;23.10;89.10
4487;DHT22;2256;48.740;9.106;2023-06-26T06:06:01;23.30;87.70
4487;DHT22;2256;48.740;9.106;2023-06-26T06:08:28;23.40;88.00
4487;DHT22;2256;48.740;9.106;2023-06-26T06:10:55;23.50;87.70
4487;DHT22;2256;48.740;9.106;2023-06-26T06:13:22;23.60;87.90
4487;DHT22;2256;48.740;9.106;2023-06-26T06:15:49;23.70;87.70
4487;DHT22;2256;48.740;9.106;2023-06-26T06:18:16;23.80;87.30
4487;DHT22;2256;48.740;9.106;2023-06-26T06:20:44;23.90;87.10
4487;DHT22;2256;48.740;9.106;2023-06-26T06:23:11;24.00;87.30
4487;DHT22;2256;48.740;9.106;2023-06-26T06:25:38;24.10;87.40
4487;DHT22;2256;48.740;9.106;2023-06-26T06:28:05;24.30;87.00
4487;DHT22;2256;48.740;9.106;2023-06-26T06:30:32;24.50;86.90
4487;DHT22;2256;48.740;9.106;2023-06-26T06:32:59;25.00;85.90
4487;DHT22;2256;48.740;9.106;2023-06-26T06:35:25;25.80;84.40
4487;DHT22;2256;48.740;9.106;2023-06-26T06:37:53;27.10;81.60
4487;DHT22;2256;48.740;9.106;2023-06-26T06:40:20;28.20;80.40
4487;DHT22;2256;48.740;9.106;2023-06-26T06:42:48;29.10;78.70
4487;DHT22;2256;48.740;9.106;2023-06-26T06:45:15;30.00;75.70
4487;DHT22;2256;48.740;9.106;2023-06-26T06:47:42;30.80;74.40
4487;DHT22;2256;48.740;9.106;2023-06-26T06:50:08;31.50;73.20
4487;DHT22;2256;48.740;9.106;2023-06-26T06:52:36;32.10;71.10
4487;DHT22;2256;48.740;9.106;2023-06-26T06:55:06;32.50;70.60
4487;DHT22;2256;48.740;9.106;2023-06-26T06:57:35;33.00;69.80
4487;DHT22;2256;48.740;9.106;2023-06-26T07:00:04;33.40;69.00
4487;DHT22;2256;48.740;9.106;2023-06-26T07:02:34;33.90;68.10
4487;DHT22;2256;48.740;9.106;2023-06-26T07:05:01;34.20;67.40
4487;DHT22;2256;48.740;9.106;2023-06-26T07:07:30;34.60;66.40
4487;DHT22;2256;48.740;9.106;2023-06-26T07:09:58;35.10;66.20
4487;DHT22;2256;48.740;9.106;2023-06-26T07:12:30;35.50;64.50
4487;DHT22;2256;48.740;9.106;2023-06-26T07:14:57;35.50;64.50
4487;DHT22;2256;48.740;9.106;2023-06-26T07:17:24;35.30;64.00
4487;DHT22;2256;48.740;9.106;2023-06-26T07:19:50;35.30;64.70
4487;DHT22;2256;48.740;9.106;2023-06-26T07:22:17;35.50;63.90
4487;DHT22;2256;48.740;9.106;2023-06-26T07:24:46;35.50;64.00
4487;DHT22;2256;48.740;9.106;2023-06-26T07:27:12;35.30;64.00
4487;DHT22;2256;48.740;9.106;2023-06-26T07:29:41;35.50;64.50
4487;DHT22;2256;48.740;9.106;2023-06-26T07:32:08;35.70;64.00
4487;DHT22;2256;48.740;9.106;2023-06-26T07:34:34;35.90;64.20
4487;DHT22;2256;48.740;9.106;2023-06-26T07:37:01;36.10;64.40
4487;DHT22;2256;48.740;9.106;2023-06-26T07:39:28;36.30;63.50
4487;DHT22;2256;48.740;9.106;2023-06-26T07:41:55;36.50;62.50
4487;DHT22;2256;48.740;9.106;2023-06-26T07:44:23;36.80;62.80
4487;DHT22;2256;48.740;9.106;2023-06-26T07:46:52;36.80;61.50
4487;DHT22;2256;48.740;9.106;2023-06-26T07:49:19;37.00;62.00
4487;DHT22;2256;48.740;9.106;2023-06-26T07:51:45;37.20;61.60
4487;DHT22;2256;48.740;9.106;2023-06-26T07:54:12;36.80;61.80
4487;DHT22;2256;48.740;9.106;2023-06-26T07:56:53;36.80;61.80
4487;DHT22;2256;48.740;9.106;2023-06-26T07:59:20;36.70;60.70
4487;DHT22;2256;48.740;9.106;2023-06-26T08:01:47;36.80;60.40
4487;DHT22;2256;48.740;9.106;2023-06-26T08:04:15;36.80;60.00
4487;DHT22;2256;48.740;9.106;2023-06-26T08:06:42;36.80;58.90
4487;DHT22;2256;48.740;9.106;2023-06-26T08:09:09;36.70;59.50
4487;DHT22;2256;48.740;9.106;2023-06-26T08:11:38;36.60;59.70
4487;DHT22;2256;48.740;9.106;2023-06-26T08:14:05;36.60;59.20
4487;DHT22;2256;48.740;9.106;2023-06-26T08:16:32;36.60;59.60
4487;DHT22;2256;48.740;9.106;2023-06-26T08:18:59;36.60;59.50
4487;DHT22;2256;48.740;9.106;2023-06-26T08:21:28;36.60;59.60
4487;DHT22;2256;48.740;9.106;2023-06-26T08:23:55;36.50;59.30
4487;DHT22;2256;48.740;9.106;2023-06-26T08:26:22;36.60;58.60
4487;DHT22;2256;48.740;9.106;2023-06-26T08:28:49;36.40;58.30
4487;DHT22;2256;48.740;9.106;2023-06-26T08:31:16;36.50;59.10
4487;DHT22;2256;48.740;9.106;2023-06-26T08:33:42;36.50;59.10
4487;DHT22;2256;48.740;9.106;2023-06-26T08:36:09;36.70;58.90
4487;DHT22;2256;48.740;9.106;2023-06-26T08:38:37;37.00;58.20
4487;DHT22;2256;48.740;9.106;2023-06-26T08:41:06;36.80;58.40
4487;DHT22;2256;48.740;9.106;2023-06-26T08:43:34;36.80;58.10
4487;DHT22;2256;48.740;9.106;2023-06-26T08:46:01;36.60;58.60
4487;DHT22;2256;48.740;9.106;2023-06-26T08:48:29;36.70;58.80
4487;DHT22;2256;48.740;9.106;2023-06-26T08:51:01;36.40;58.60
4487;DHT22;2256;48.740;9.106;2023-06-26T08:53:35;36.30;59.60
4487;DHT22;2256;48.740;9.106;2023-06-26T08:56:06;36.20;58.00
4487;DHT22;2256;48.740;9.106;2023-06-26T08:58:34;35.90;58.70
4487;DHT22;2256;48.740;9.106;2023-06-26T09:01:04;35.50;59.40
4487;DHT22;2256;48.740;9.106;2023-06-26T09:03:31;35.90;59.70
4487;DHT22;2256;48.740;9.106;2023-06-26T09:05:58;36.10;60.10
4487;DHT22;2256;48.740;9.106;2023-06-26T09:08:26;36.00;58.60
4487;DHT22;2256;48.740;9.106;2023-06-26T09:10:52;36.00;59.20
4487;DHT22;2256;48.740;9.106;2023-06-26T09:13:21;35.90;59.30
4487;DHT22;2256;48.740;9.106;2023-06-26T09:15:48;36.30;59.00
4487;DHT22;2256;48.740;9.106;2023-06-26T09:18:17;36.70;58.20
4487;DHT22;2256;48.740;9.106;2023-06-26T09:20:45;36.90;57.30
4487;DHT22;2256;48.740;9.106;2023-06-26T09:23:12;37.00;57.60
4487;DHT22;2256;48.740;9.106;2023-06-26T09:25:40;37.40;56.80
4487;DHT22;2256;48.740;9.106;2023-06-26T09:28:08;37.40;57.00
4487;DHT22;2256;48.740;9.106;2023-06-26T09:30:36;37.30;56.70
4487;DHT22;2256;48.740;9.106;2023-06-26T09:33:13;37.10;56.20
4487;DHT22;2256;48.740;9.106;2023-06-26T09:35:40;37.20;56.80
4487;DHT22;2256;48.740;9.106;2023-06-26T09:38:07;37.20;57.10
4487;DHT22;2256;48.740;9.106;2023-06-26T09:40:34;36.70;56.50
4487;DHT22;2256;48.740;9.106;2023-06-26T09:43:03;36.40;57.90
4487;DHT22;2256;48.740;9.106;2023-06-26T09:45:31;36.80;57.40
4487;DHT22;2256;48.740;9.106;2023-06-26T09:48:01;36.80;57.80
4487;DHT22;2256;48.740;9.106;2023-06-26T09:50:30;36.10;58.10
4487;DHT22;2256;48.740;9.106;2023-06-26T09:53:07;35.70;58.50
4487;DHT22;2256;48.740;9.106;2023-06-26T09:55:34;36.00;58.50
4487;DHT22;2256;48.740;9.106;2023-06-26T09:58:02;35.70;58.20
4487;DHT22;2256;48.740;9.106;2023-06-26T10:00:30;35.30;58.30
4487;DHT22;2256;48.740;9.106;2023-06-26T10:02:57;35.30;59.20
4487;DHT22;2256;48.740;9.106;2023-06-26T10:05:25;35.60;58.50
4487;DHT22;2256;48.740;9.106;2023-06-26T10:07:52;35.80;59.00
4487;DHT22;2256;48.740;9.106;2023-06-26T10:10:21;36.00;59.10
4487;DHT22;2256;48.740;9.106;2023-06-26T10:12:53;35.50;59.20
4487;DHT22;2256;48.740;9.106;2023-06-26T10:15:23;34.80;59.40
4487;DHT22;2256;48.740;9.106;2023-06-26T10:17:55;34.70;60.60
4487;DHT22;2256;48.740;9.106;2023-06-26T10:20:24;34.10;60.50
4487;DHT22;2256;48.740;9.106;2023-06-26T10:22:51;33.40;60.40
4487;DHT22;2256;48.740;9.106;2023-06-26T10:25:21;33.10;62.00
4487;DHT22;2256;48.740;9.106;2023-06-26T10:27:54;32.70;63.60
4487;DHT22;2256;48.740;9.106;2023-06-26T10:30:25;32.20;65.10
4487;DHT22;2256;48.740;9.106;2023-06-26T10:32:54;31.40;67.80
4487;DHT22;2256;48.740;9.106;2023-06-26T10:35:21;30.90;69.40
4487;DHT22;2256;48.740;9.106;2023-06-26T10:37:50;30.50;70.90
4487;DHT22;2256;48.740;9.106;2023-06-26T10:40:22;30.20;71.80
4487;DHT22;2256;48.740;9.106;2023-06-26T10:42:51;30.10;72.80
4487;DHT22;2256;48.740;9.106;2023-06-26T10:45:20;30.40;72.40
4487;DHT22;2256;48.740;9.106;2023-06-26T10:47:52;30.60;71.70
4487;DHT22;2256;48.740;9.106;2023-06-26T10:50:21;30.80;72.20
4487;DHT22;2256;48.740;9.106;2023-06-26T10:53:15;31.00;72.00
4487;DHT22;2256;48.740;9.106;2023-06-26T10:55:49;31.20;71.10
4487;DHT22;2256;48.740;9.106;2023-06-26T10:58:31;31.20;71.80
4487;DHT22;2256;48.740;9.106;2023-06-26T11:01:28;31.40;71.50
4487;DHT22;2256;48.740;9.106;2023-06-26T11:04:04;31.70;70.80
4487;DHT22;2256;48.740;9.106;2023-06-26T11:06:32;32.10;70.50
4487;DHT22;2256;48.740;9.106;2023-06-26T11:09:08;32.20;69.40
4487;DHT22;2256;48.740;9.106;2023-06-26T11:11:58;32.30;70.60
4487;DHT22;2256;48.740;9.106;2023-06-26T11:14:30;32.40;69.90
4487;DHT22;2256;48.740;9.106;2023-06-26T11:16:58;32.20;69.50
4487;DHT22;2256;48.740;9.106;2023-06-26T11:19:27;31.80;70.40
4487;DHT22;2256;48.740;9.106;2023-06-26T11:21:58;31.70;70.90
4487;DHT22;2256;48.740;9.106;2023-06-26T11:24:28;31.60;70.70
4487;DHT22;2256;48.740;9.106;2023-06-26T11:27:00;31.90;71.80
4487;DHT22;2256;48.740;9.106;2023-06-26T11:29:26;32.00;71.20
4487;DHT22;2256;48.740;9.106;2023-06-26T11:31:58;32.20;70.80
4487;DHT22;2256;48.740;9.106;2023-06-26T11:34:29;32.30;71.90
4487;DHT22;2256;48.740;9.106;2023-06-26T11:36:57;32.40;70.90
4487;DHT22;2256;48.740;9.106;2023-06-26T11:39:28;32.40;70.60
4487;DHT22;2256;48.740;9.106;2023-06-26T11:41:54;32.50;71.50
4487;DHT22;2256;48.740;9.106;2023-06-26T11:44:22;32.60;72.60
4487;DHT22;2256;48.740;9.106;2023-06-26T11:46:52;32.60;71.50
4487;DHT22;2256;48.740;9.106;2023-06-26T11:49:21;32.70;71.40
4487;DHT22;2256;48.740;9.106;2023-06-26T11:51:49;32.80;70.90
4487;DHT22;2256;48.740;9.106;2023-06-26T11:54:22;32.90;71.70
4487;DHT22;2256;48.740;9.106;2023-06-26T11:56:54;32.60;70.90
4487;DHT22;2256;48.740;9.106;2023-06-26T11:59:23;32.10;72.20
4487;DHT22;2256;48.740;9.106;2023-06-26T12:01:51;32.00;72.60
4487;DHT22;2256;48.740;9.106;2023-06-26T12:04:21;32.00;73.80
4487;DHT22;2256;48.740;9.106;2023-06-26T12:06:52;32.30;73.50
4487;DHT22;2256;48.740;9.106;2023-06-26T12:09:24;32.20;73.30
4487;DHT22;2256;48.740;9.106;2023-06-26T12:11:59;31.70;73.80
4487;DHT22;2256;48.740;9.106;2023-06-26T12:14:30;31.40;74.50
4487;DHT22;2256;48.740;9.106;2023-06-26T12:17:04;31.60;74.40
4487;DHT22;2256;48.740;9.106;2023-06-26T12:19:31;31.90;75.00
4487;DHT22;2256;48.740;9.106;2023-06-26T12:21:58;32.00;74.30
4487;DHT22;2256;48.740;9.106;2023-06-26T12:24:25;32.00;74.00
4487;DHT22;2256;48.740;9.106;2023-06-26T12:26:56;31.80;74.40
4487;DHT22;2256;48.740;9.106;2023-06-26T12:29:31;31.70;74.70
4487;DHT22;2256;48.740;9.106;2023-06-26T12:32:00;31.80;74.90
4487;DHT22;2256;48.740;9.106;2023-06-26T12:34:29;31.90;75.00
4487;DHT22;2256;48.740;9.106;2023-06-26T12:37:00;31.90;75.70
4487;DHT22;2256;48.740;9.106;2023-06-26T12:39:28;31.90;75.00
4487;DHT22;2256;48.740;9.106;2023-06-26T12:41:57;31.90;75.00
4487;DHT22;2256;48.740;9.106;2023-06-26T12:44:27;31.60;75.70
4487;DHT22;2256;48.740;9.106;2023-06-26T12:46:58;31.50;75.60
4487;DHT22;2256;48.740;9.106;2023-06-26T12:49:32;31.50;76.80
4487;DHT22;2256;48.740;9.106;2023-06-26T12:52:00;31.60;75.40
4487;DHT22;2256;48.740;9.106;2023-06-26T12:54:27;31.60;76.10
4487;DHT22;2256;48.740;9.106;2023-06-26T12:56:56;31.60;76.20
4487;DHT22;2256;48.740;9.106;2023-06-26T12:59:23;31.70;74.60
4487;DHT22;2256;48.740;9.106;2023-06-26T13:01:51;31.60;75.90
4487;DHT22;2256;48.740;9.106;2023-06-26T13:04:18;31.70;76.20
4487;DHT22;2256;48.740;9.106;2023-06-26T13:06:44;31.60;75.80
4487;DHT22;2256;48.740;9.106;2023-06-26T13:09:12;31.60;76.00
4487;DHT22;2256;48.740;9.106;2023-06-26T13:11:38;31.80;75.80
4487;DHT22;2256;48.740;9.106;2023-06-26T13:14:06;31.70;75.20
4487;DHT22;2256;48.740;9.106;2023-06-26T13:16:34;31.50;75.00
4487;DHT22;2256;48.740;9.106;2023-06-26T13:19:01;31.40;74.90
4487;DHT22;2256;48.740;9.106;2023-06-26T13:21:28;31.40;75.10
4487;DHT22;2256;48.740;9.106;2023-06-26T13:23:56;31.40;75.00
4487;DHT22;2256;48.740;9.106;2023-06-26T13:26:23;31.30;74.90
4487;DHT22;2256;48.740;9.106;2023-06-26T13:28:51;31.30;75.30
4487;DHT22;2256;48.740;9.106;2023-06-26T13:31:19;31.30;75.10
4487;DHT22;2256;48.740;9.106;2023-06-26T13:33:46;31.20;74.50
4487;DHT22;2256;48.740;9.106;2023-06-26T13:36:14;31.20;74.30
4487;DHT22;2256;48.740;9.106;2023-06-26T13:38:44;31.20;74.40
4487;DHT22;2256;48.740;9.106;2023-06-26T13:41:11;31.30;73.60
4487;DHT22;2256;48.740;9.106;2023-06-26T13:43:38;31.40;73.50
4487;DHT22;2256;48.740;9.106;2023-06-26T13:46:05;31.40;73.40
4487;DHT22;2256;48.740;9.106;2023-06-26T13:48:33;31.10;72.70
4487;DHT22;2256;48.740;9.106;2023-06-26T13:51:00;30.90;73.70
4487;DHT22;2256;48.740;9.106;2023-06-26T13:53:26;30.90;73.20
4487;DHT22;2256;48.740;9.106;2023-06-26T13:55:53;30.90;73.00
4487;DHT22;2256;48.740;9.106;2023-06-26T13:58:20;30.70;71.60
4487;DHT22;2256;48.740;9.106;2023-06-26T14:00:52;30.70;72.10
4487;DHT22;2256;48.740;9.106;2023-06-26T14:03:19;30.60;72.20
4487;DHT22;2256;48.740;9.106;2023-06-26T14:05:48;30.70;71.60
4487;DHT22;2256;48.740;9.106;2023-06-26T14:08:14;30.80;70.30
4487;DHT22;2256;48.740;9.106;2023-06-26T14:10:42;30.70;71.20
4487;DHT22;2256;48.740;9.106;2023-06-26T14:13:09;30.50;70.40
4487;DHT22;2256;48.740;9.106;2023-06-26T14:15:37;30.50;71.00
4487;DHT22;2256;48.740;9.106;2023-06-26T14:18:06;30.60;70.00
4487;DHT22;2256;48.740;9.106;2023-06-26T14:20:33;30.80;69.30
4487;DHT22;2256;48.740;9.106;2023-06-26T14:23:03;30.60;67.90
4487;DHT22;2256;48.740;9.106;2023-06-26T14:25:30;30.30;68.70
4487;DHT22;2256;48.740;9.106;2023-06-26T14:27:57;30.40;69.20
4487;DHT22;2256;48.740;9.106;2023-06-26T14:30:25;30.60;70.30
4487;DHT22;2256;48.740;9.106;2023-06-26T14:32:52;30.50;68.50
4487;DHT22;2256;48.740;9.106;2023-06-26T14:35:19;30.20;69.30
4487;DHT22;2256;48.740;9.106;2023-06-26T14:41:10;30.20;69.30
4487;DHT22;2256;48.740;9.106;2023-06-26T14:43:36;30.20;70.10
4487;DHT22;2256;48.740;9.106;2023-06-26T14:46:04;30.20;70.30
4487;DHT22;2256;48.740;9.106;2023-06-26T14:48:30;30.20;70.50
4487;DHT22;2256;48.740;9.106;2023-06-26T14:50:57;30.10;71.20
4487;DHT22;2256;48.740;9.106;2023-06-26T14:53:25;30.20;70.90
4487;DHT22;2256;48.740;9.106;2023-06-26T14:55:52;30.30;70.30
4487;DHT22;2256;48.740;9.106;2023-06-26T14:58:21;30.20;70.70
4487;DHT22;2256;48.740;9.106;2023-06-26T15:00:48;30.20;70.50
4487;DHT22;2256;48.740;9.106;2023-06-26T15:03:15;30.10;70.80
4487;DHT22;2256;48.740;9.106;2023-06-26T15:05:42;30.10;71.10
4487;DHT22;2256;48.740;9.106;2023-06-26T15:08:10;29.90;71.60
4487;DHT22;2256;48.740;9.106;2023-06-26T15:10:37;29.60;72.00
4487;DHT22;2256;48.740;9.106;2023-06-26T15:13:05;29.60;72.50
4487;DHT22;2256;48.740;9.106;2023-06-26T15:15:34;29.60;72.40
4487;DHT22;2256;48.740;9.106;2023-06-26T15:18:01;29.60;71.00
4487;DHT22;2256;48.740;9.106;2023-06-26T15:20:28;29.60;71.30
4487;DHT22;2256;48.740;9.106;2023-06-26T15:22:54;29.50;71.60
4487;DHT22;2256;48.740;9.106;2023-06-26T15:25:23;29.70;71.40
4487;DHT22;2256;48.740;9.106;2023-06-26T15:27:50;29.60;71.20
4487;DHT22;2256;48.740;9.106;2023-06-26T15:30:17;29.60;71.30
4487;DHT22;2256;48.740;9.106;2023-06-26T15:32:45;29.30;70.60
4487;DHT22;2256;48.740;9.106;2023-06-26T15:35:13;29.20;71.50
4487;DHT22;2256;48.740;9.106;2023-06-26T15:37:40;29.10;72.10
4487;DHT22;2256;48.740;9.106;2023-06-26T15:40:08;28.80;72.00
4487;DHT22;2256;48.740;9.106;2023-06-26T15:42:44;28.70;71.90
4487;DHT22;2256;48.740;9.106;2023-06-26T15:45:11;28.50;72.70
4487;DHT22;2256;48.740;9.106;2023-06-26T15:47:38;28.60;72.80
4487;DHT22;2256;48.740;9.106;2023-06-26T15:50:08;28.60;72.40
4487;DHT22;2256;48.740;9.106;2023-06-26T15:52:35;28.70;71.90
4487;DHT22;2256;48.740;9.106;2023-06-26T15:55:02;28.70;72.20
4487;DHT22;2256;48.740;9.106;2023-06-26T15:57:31;28.60;72.10
4487;DHT22;2256;48.740;9.106;2023-06-26T15:59:58;28.50;73.60
4487;DHT22;2256;48.740;9.106;2023-06-26T16:02:25;28.20;73.30
4487;DHT22;2256;48.740;9.106;2023-06-26T16:04:52;28.10;73.30
4487;DHT22;2256;48.740;9.106;2023-06-26T16:07:22;28.10;73.30
4487;DHT22;2256;48.740;9.106;2023-06-26T16:09:49;28.00;73.50
4487;DHT22;2256;48.740;9.106;2023-06-26T16:12:16;28.00;74.00
4487;DHT22;2256;48.740;9.106;2023-06-26T16:14:43;27.70;74.60
4487;DHT22;2256;48.740;9.106;2023-06-26T16:17:10;27.50;74.40
4487;DHT22;2256;48.740;9.106;2023-06-26T16:19:36;27.50;74.10
4487;DHT22;2256;48.740;9.106;2023-06-26T16:22:04;27.10;75.00
4487;DHT22;2256;48.740;9.106;2023-06-26T16:24:33;27.10;75.00
4487;DHT22;2256;48.740;9.106;2023-06-26T16:27:03;27.00;74.50
4487;DHT22;2256;48.740;9.106;2023-06-26T16:29:31;26.90;74.20